Time;durP1;ratioP1;P1;durP2;ratioP2;P2;SDS_P1;SDS_P2;PMS_P1;PMS_P2;Temp;Humidity;BMP_temperature;BMP_pressure;BME280_temperature;BME280_humidity;BME280_pressure;Samples;Min_cycle;Max_cycle;Signal;HPM_P1;HPM_P2
2021/04/11 00:00:32;;;;;;;6.27;4.07;;;;;;;6.74;74.57;99691.63;2072304;28;20517;-57
2021/04/11 00:01:32;;;;;;;6.22;4.47;;;;;;;6.73;74.62;99699.44;2073584;28;20035;-58
2021/04/11 00:02:33;;;;;;;6.35;4.22;;;;;;;6.70;74.93;99695.19;2062445;28;20495;-58
2021/04/11 00:03:33;;;;;;;7.47;4.40;;;;;;;6.70;74.75;99695.19;2062692;28;20042;-57
2021/04/11 00:04:33;;;;;;;4.30;3.90;;;;;;;6.81;74.63;99688.00;2067539;28;20030;-58
2021/04/11 00:05:37;;;;;;;4.57;3.70;;;;;;;6.88;73.90;99688.72;2066793;28;20776;-58
2021/04/11 00:06:38;;;;;;;7.15;4.30;;;;;;;6.93;74.02;99688.59;2065201;28;20029;-58
2021/04/11 00:07:38;;;;;;;7.13;4.27;;;;;;;7.04;73.49;99694.38;2062151;28;20057;-58
2021/04/11 00:08:38;;;;;;;8.00;4.53;;;;;;;7.05;73.33;99695.25;2063097;28;20031;-58
2021/04/11 00:09:39;;;;;;;6.27;4.40;;;;;;;7.07;73.39;99696.91;2067978;28;20839;-58
2021/04/11 00:10:42;;;;;;;7.03;4.20;;;;;;;6.99;73.64;99701.44;2066298;28;20030;-59
2021/04/11 00:11:43;;;;;;;5.97;4.45;;;;;;;7.06;73.52;99695.22;2065113;28;20113;-58
2021/04/11 00:12:43;;;;;;;7.93;4.78;;;;;;;7.10;72.92;99696.00;2063324;28;20041;-58
2021/04/11 00:13:44;;;;;;;6.00;4.37;;;;;;;7.24;72.45;99690.47;2068130;28;20113;-58
2021/04/11 00:14:44;;;;;;;7.70;4.80;;;;;;;7.23;72.26;99692.22;2062151;28;20030;-61
2021/04/11 00:15:44;;;;;;;7.17;4.63;;;;;;;7.32;71.94;99698.91;2062044;28;20281;-60
2021/04/11 00:16:45;;;;;;;7.97;4.73;;;;;;;7.38;71.66;99695.31;2061963;28;20030;-62
2021/04/11 00:17:45;;;;;;;9.67;5.00;;;;;;;7.33;71.72;99690.22;2062504;28;20490;-59
2021/04/11 00:18:46;;;;;;;5.55;4.35;;;;;;;7.31;71.87;99692.88;2067855;28;20080;-63
2021/04/11 00:19:46;;;;;;;8.48;5.10;;;;;;;7.28;71.95;99686.91;2064112;28;20048;-60
2021/04/11 00:20:48;;;;;;;8.90;5.00;;;;;;;7.30;72.06;99682.53;2065157;28;20035;-61
2021/04/11 00:21:48;;;;;;;8.30;4.80;;;;;;;7.36;71.56;99682.38;2062365;28;20037;-59
2021/04/11 00:22:51;;;;;;;5.30;4.40;;;;;;;7.46;71.22;99675.22;2062241;28;20026;-57
2021/04/11 00:23:51;;;;;;;7.45;5.15;;;;;;;7.43;71.32;99686.53;2067836;28;20088;-58
2021/04/11 00:24:52;;;;;;;6.33;4.67;;;;;;;7.54;70.80;99682.81;2063620;28;20642;-59
2021/04/11 00:25:52;;;;;;;9.33;4.73;;;;;;;7.58;70.53;99681.84;2062399;28;20044;-58
2021/04/11 00:26:53;;;;;;;7.30;4.72;;;;;;;7.48;70.92;99683.81;2062030;28;20117;-58
2021/04/11 00:27:54;;;;;;;7.97;5.13;;;;;;;7.46;70.90;99683.84;2066753;28;20073;-58
2021/04/11 00:28:54;;;;;;;6.93;4.80;;;;;;;7.41;71.25;99682.28;2066991;28;20044;-57
2021/04/11 00:29:54;;;;;;;7.97;4.80;;;;;;;7.47;71.21;99682.97;2071650;28;20739;-57
2021/04/11 00:30:54;;;;;;;6.63;4.80;;;;;;;7.44;71.06;99685.63;2071682;28;20056;-57
2021/04/11 00:31:55;;;;;;;6.17;4.53;;;;;;;7.48;70.88;99691.59;2062274;28;20809;-58
2021/04/11 00:32:58;;;;;;;8.47;4.47;;;;;;;7.43;71.39;99677.91;2067548;28;20538;-57
2021/04/11 00:33:58;;;;;;;6.25;4.38;;;;;;;7.45;70.99;99682.16;2058683;28;20034;-57
2021/04/11 00:34:59;;;;;;;7.67;4.90;;;;;;;7.42;71.39;99673.59;2064475;28;20479;-57
2021/04/11 00:36:07;;;;;;;8.30;4.73;;;;;;;7.45;71.25;99676.97;2062569;28;20026;-58
2021/04/11 00:37:08;;;;;;;10.23;5.38;;;;;;;7.52;70.61;99679.38;2059968;28;20026;-58
2021/04/11 00:38:08;;;;;;;7.40;5.40;;;;;;;7.52;70.79;99680.25;2065543;28;20022;-58
2021/04/11 00:39:08;;;;;;;6.70;5.50;;;;;;;7.52;70.73;99679.38;2063729;28;20129;-58
2021/04/11 00:40:24;;;;;;;8.33;5.53;;;;;;;7.50;71.15;99671.66;2062433;28;20049;-58
2021/04/11 00:41:42;;;;;;;8.90;5.25;;;;;;;7.55;71.01;99671.53;2063288;28;20489;-58
2021/04/11 00:42:44;;;;;;;7.93;5.50;;;;;;;7.53;70.74;99670.72;2067399;28;20017;-58
2021/04/11 00:43:45;;;;;;;8.60;5.57;;;;;;;7.67;70.43;99666.03;2055008;28;20045;-58
2021/04/11 00:44:46;;;;;;;8.70;5.70;;;;;;;7.69;70.43;99665.97;2056492;28;20037;-58
2021/04/11 00:46:20;;;;;;;12.57;5.65;;;;;;;7.61;70.93;99659.28;2063014;28;20085;-58
2021/04/11 00:47:20;;;;;;;8.07;5.43;;;;;;;7.60;71.10;99660.16;2072246;28;20021;-58
2021/04/11 00:48:24;;;;;;;9.10;5.60;;;;;;;7.74;70.52;99664.97;2072168;28;20866;-58
2021/04/11 00:49:34;;;;;;;6.93;5.43;;;;;;;7.67;70.75;99658.25;2071031;28;20465;-60
2021/04/11 00:50:35;;;;;;;9.55;5.65;;;;;;;7.71;70.75;99654.66;2064779;28;20059;-59
2021/04/11 00:51:35;;;;;;;12.35;6.25;;;;;;;7.76;70.61;99655.41;2057388;28;20552;-58
2021/04/11 00:52:35;;;;;;;8.30;6.03;;;;;;;7.79;70.63;99651.88;2062276;28;20064;-58
2021/04/11 00:53:36;;;;;;;8.43;5.87;;;;;;;7.78;70.58;99660.53;2058893;28;20117;-58
2021/04/11 00:54:37;;;;;;;7.90;5.87;;;;;;;7.87;70.35;99647.31;2060746;28;20498;-58
2021/04/11 00:55:37;;;;;;;7.75;6.38;;;;;;;7.88;70.58;99643.00;2062764;28;20077;-58
2021/04/11 00:56:38;;;;;;;11.97;6.23;;;;;;;7.96;70.40;99643.63;2065797;28;20045;-58
2021/04/11 00:57:40;;;;;;;11.32;6.85;;;;;;;8.02;70.17;99646.03;2062364;28;20026;-58
2021/04/11 00:58:41;;;;;;;10.43;6.55;;;;;;;7.97;70.40;99640.13;2060217;28;20065;-58
2021/04/11 00:59:41;;;;;;;10.40;6.75;;;;;;;7.98;70.46;99641.84;2065474;28;20442;-58
2021/04/11 01:00:42;;;;;;;9.33;6.40;;;;;;;8.01;70.47;99646.91;2066928;28;20038;-58
2021/04/11 01:01:42;;;;;;;9.07;6.10;;;;;;;8.01;70.52;99639.13;2063053;28;20030;-58
2021/04/11 01:02:43;;;;;;;9.60;6.23;;;;;;;8.02;70.64;99642.59;2064251;28;20092;-58
2021/04/11 01:03:43;;;;;;;10.80;6.53;;;;;;;8.04;70.77;99638.19;2063112;28;20030;-58
2021/04/11 01:04:43;;;;;;;8.63;6.27;;;;;;;8.02;70.92;99633.06;2074134;28;20033;-58
2021/04/11 01:05:44;;;;;;;8.20;5.90;;;;;;;8.01;71.17;99639.13;2074907;28;20026;-58
2021/04/11 01:06:49;;;;;;;10.95;5.88;;;;;;;8.02;71.17;99635.66;2093238;23;20419;-81
2021/04/11 01:07:50;;;;;;;8.35;5.97;;;;;;;8.09;71.06;99636.34;2071941;28;20026;-80
2021/04/11 01:08:53;;;;;;;9.55;5.90;;;;;;;8.09;70.86;99634.56;2072328;28;20036;-80
2021/04/11 01:09:54;;;;;;;10.30;5.57;;;;;;;8.07;71.24;99633.78;2076254;28;20514;-80
2021/04/11 01:11:09;;;;;;;8.15;5.80;;;;;;;8.12;70.81;99627.59;2074917;28;20068;-80
2021/04/11 01:12:13;;;;;;;7.70;5.85;;;;;;;8.10;70.87;99636.28;2071414;28;20053;-80
2021/04/11 01:13:15;;;;;;;8.15;5.10;;;;;;;8.05;71.08;99629.50;2071239;28;20040;-81
2021/04/11 01:14:17;;;;;;;9.20;5.88;;;;;;;8.04;71.00;99636.47;2074433;28;20045;-80
2021/04/11 01:15:24;;;;;;;9.57;6.38;;;;;;;8.05;71.08;99638.16;2072052;28;20092;-80
2021/04/11 01:16:26;;;;;;;11.43;6.18;;;;;;;8.05;71.03;99622.59;2070981;28;20033;-80
2021/04/11 01:17:26;;;;;;;;;;;;;;;8.03;71.15;99624.38;2071900;28;20476;-81
2021/04/11 01:18:26;;;;;;;7.97;6.25;;;;;;;8.06;71.12;99633.81;2071026;28;19983;-81
2021/04/11 01:19:32;;;;;;;8.00;5.80;;;;;;;8.04;71.40;99635.59;2076115;28;20026;-81
2021/04/11 01:20:34;;;;;;;8.93;5.40;;;;;;;8.07;71.13;99636.38;2071395;28;20504;-81
2021/04/11 01:22:04;;;;;;;9.63;5.72;;;;;;;8.00;71.49;99632.25;2072941;28;20044;-80
2021/04/11 01:23:33;;;;;;;7.10;5.35;;;;;;;8.04;71.75;99628.69;2072151;28;20140;-81
2021/04/11 01:24:50;;;;;;;9.50;5.22;;;;;;;8.01;72.08;99622.72;2071910;28;20033;-80
2021/04/11 01:25:51;;;;;;;8.13;5.10;;;;;;;8.05;72.26;99622.59;2070572;28;20113;-81
2021/04/11 01:26:53;;;;;;;8.43;5.65;;;;;;;8.02;72.49;99622.69;2071334;28;20030;-81
2021/04/11 01:27:55;;;;;;;7.10;4.97;;;;;;;8.06;72.67;99620.84;2076932;28;20055;-81
2021/04/11 01:28:56;;;;;;;6.82;5.05;;;;;;;8.02;72.55;99617.50;2074214;28;20029;-81
2021/04/11 01:29:58;;;;;;;7.72;5.70;;;;;;;7.95;72.95;99622.00;2072665;28;20030;-81
2021/04/11 01:31:05;;;;;;;7.13;5.07;;;;;;;8.05;72.32;99617.41;2072826;28;20041;-81
2021/04/11 01:32:10;;;;;;;8.30;5.30;;;;;;;8.06;72.63;99623.44;2076964;28;20064;-80
2021/04/11 01:33:20;;;;;;;10.00;5.05;;;;;;;8.13;72.37;99617.16;2071504;28;20104;-81
2021/04/11 01:34:20;;;;;;;7.68;5.53;;;;;;;8.02;72.47;99612.28;2072370;28;20029;-80
2021/04/11 01:35:23;;;;;;;7.17;5.27;;;;;;;7.98;72.87;99615.03;2072212;28;20022;-81
2021/04/11 01:36:27;;;;;;;7.22;5.07;;;;;;;7.91;73.23;99623.00;2075698;28;20022;-81
2021/04/11 01:37:27;;;;;;;11.48;5.40;;;;;;;7.92;73.29;99619.50;2074105;28;20026;-81
2021/04/11 01:38:28;;;;;;;8.43;5.15;;;;;;;7.82;73.66;99619.81;2078305;28;20041;-81
2021/04/11 01:39:31;;;;;;;9.67;5.60;;;;;;;7.75;73.93;99614.78;2080099;28;20060;-80
2021/04/11 01:40:41;;;;;;;8.50;5.32;;;;;;;7.69;74.11;99614.09;2073939;28;20029;-81
2021/04/11 01:41:43;;;;;;;8.13;5.32;;;;;;;7.69;74.32;99619.28;2077583;28;20059;-81
2021/04/11 01:42:44;;;;;;;7.70;5.18;;;;;;;7.63;74.76;99622.91;2072116;28;20026;-81
2021/04/11 01:43:45;;;;;;;7.63;5.33;;;;;;;7.61;74.82;99622.09;2071459;28;20433;-81
2021/04/11 01:44:48;;;;;;;8.10;5.40;;;;;;;7.54;75.02;99625.75;2072987;28;20030;-81
2021/04/11 01:45:49;;;;;;;9.45;5.20;;;;;;;7.41;75.36;99623.47;2074066;28;20280;-81
2021/04/11 01:46:49;;;;;;;8.57;5.13;;;;;;;7.36;75.63;99627.09;2075724;28;20029;-80
2021/04/11 01:47:50;;;;;;;8.77;5.82;;;;;;;7.36;76.04;99627.09;2081150;28;20041;-81
2021/04/11 01:48:51;;;;;;;7.03;5.10;;;;;;;7.32;75.68;99631.50;2080151;28;20120;-80
2021/04/11 01:49:52;;;;;;;8.90;5.22;;;;;;;7.25;76.02;99622.19;2072570;28;20076;-80
2021/04/11 01:50:54;;;;;;;8.93;5.70;;;;;;;7.24;76.07;99623.06;2078253;28;20108;-80
2021/04/11 01:52:03;;;;;;;7.47;5.50;;;;;;;7.18;76.28;99623.25;2070923;28;20053;-80
2021/04/11 01:53:05;;;;;;;10.35;5.53;;;;;;;7.13;76.60;99621.59;2066085;28;20400;-80
2021/04/11 01:54:08;;;;;;;8.52;5.85;;;;;;;7.17;76.51;99630.16;2075657;28;20559;-80
2021/04/11 01:55:11;;;;;;;7.30;5.40;;;;;;;7.13;76.62;99615.59;2076245;28;20392;-80
2021/04/11 01:56:12;;;;;;;9.15;5.85;;;;;;;7.08;76.78;99623.47;2079344;28;20026;-80
2021/04/11 01:57:30;;;;;;;8.50;6.07;;;;;;;7.09;76.94;99614.81;2078918;28;20538;-80
2021/04/11 01:58:33;;;;;;;11.98;5.95;;;;;;;7.15;76.81;99622.44;2076114;28;20042;-80
2021/04/11 01:59:34;;;;;;;9.70;6.00;;;;;;;7.13;76.99;99616.44;2070709;28;20044;-80
2021/04/11 02:00:38;;;;;;;8.43;6.40;;;;;;;7.10;76.90;99616.50;2071760;28;20040;-80
2021/04/11 02:01:40;;;;;;;10.68;6.20;;;;;;;7.10;77.02;99616.50;2067338;28;20031;-80
2021/04/11 02:02:40;;;;;;;8.88;6.03;;;;;;;7.07;76.95;99616.59;2070398;28;20109;-79
2021/04/11 02:03:40;;;;;;;9.73;6.10;;;;;;;7.09;76.90;99614.81;2071511;28;20025;-80
2021/04/11 02:04:41;;;;;;;8.73;6.20;;;;;;;7.11;76.95;99612.19;2071429;28;20065;-80
2021/04/11 02:05:43;;;;;;;8.57;6.00;;;;;;;7.22;76.49;99614.47;2075463;28;20029;-79
2021/04/11 02:06:48;;;;;;;8.75;5.80;;;;;;;7.34;75.93;99614.16;2071241;28;20034;-80
2021/04/11 02:07:51;;;;;;;8.70;6.00;;;;;;;7.32;75.91;99614.22;2079895;28;20021;-81
2021/04/11 02:08:56;;;;;;;9.63;5.75;;;;;;;7.44;75.08;99613.03;2080828;28;20025;-80
2021/04/11 02:09:57;;;;;;;11.93;5.70;;;;;;;7.59;74.47;99605.75;2064689;28;20033;-80
2021/04/11 02:10:58;;;;;;;9.18;5.90;;;;;;;7.59;74.61;99603.16;2064726;28;20054;-80
2021/04/11 02:11:59;;;;;;;8.52;5.80;;;;;;;7.72;73.39;99614.88;2063904;28;20391;-80
2021/04/11 02:13:00;;;;;;;8.05;5.57;;;;;;;7.78;73.14;99606.06;2066155;28;20022;-79
2021/04/11 02:14:00;;;;;;;11.33;5.70;;;;;;;7.78;73.56;99600.88;2068343;28;20028;-81
2021/04/11 02:15:07;;;;;;;8.43;5.57;;;;;;;7.78;73.04;99606.94;2070510;28;20398;-81
2021/04/11 02:16:10;;;;;;;10.05;5.45;;;;;;;7.82;72.76;99604.22;2063943;28;20092;-80
2021/04/11 02:17:12;;;;;;;8.52;5.05;;;;;;;7.94;72.00;99603.88;2063984;28;20026;-81
2021/04/11 02:18:14;;;;;;;10.15;4.90;;;;;;;7.96;72.15;99599.50;2064917;28;20464;-80
2021/04/11 02:19:20;;;;;;;13.63;5.30;;;;;;;8.06;71.44;99595.75;2067614;28;20076;-80
2021/04/11 02:20:25;;;;;;;8.07;5.00;;;;;;;8.08;70.93;99596.53;2080075;28;20492;-80
2021/04/11 02:21:27;;;;;;;9.07;4.80;;;;;;;8.18;70.37;99597.13;2080331;28;20033;-80
2021/04/11 02:22:29;;;;;;;13.98;5.47;;;;;;;8.22;70.01;99598.75;2072678;28;20037;-80
2021/04/11 02:23:30;;;;;;;9.35;4.95;;;;;;;8.21;69.99;99598.78;2073117;28;20026;-81
2021/04/11 02:24:30;;;;;;;10.95;4.93;;;;;;;8.23;69.73;99591.78;2072679;28;20091;-80
2021/04/11 02:25:35;;;;;;;8.03;5.23;;;;;;;8.29;69.54;99599.38;2072738;28;20480;-80
2021/04/11 02:26:37;;;;;;;7.40;4.50;;;;;;;8.30;69.27;99595.88;2072851;28;20052;-80
2021/04/11 02:27:37;;;;;;;7.55;4.90;;;;;;;8.32;69.26;99594.09;2072665;28;20033;-80
2021/04/11 02:28:38;;;;;;;6.43;4.50;;;;;;;8.38;69.07;99599.09;2072573;28;20097;-80
2021/04/11 02:29:39;;;;;;;9.77;4.47;;;;;;;8.41;68.78;99599.00;2072831;28;20061;-80
2021/04/11 02:30:49;;;;;;;7.63;4.75;;;;;;;8.46;68.95;99600.63;2074121;28;20026;-80
2021/04/11 02:31:50;;;;;;;10.15;4.95;;;;;;;8.46;68.56;99595.44;2067176;28;20022;-81
2021/04/11 02:32:51;;;;;;;7.03;4.80;;;;;;;8.50;68.26;99594.47;2065140;28;20029;-80
2021/04/11 02:34:01;;;;;;;6.70;4.40;;;;;;;8.53;68.27;99596.97;2065546;28;20022;-80
2021/04/11 02:35:05;;;;;;;10.23;4.65;;;;;;;8.50;68.13;99591.84;2065350;28;20029;-81
2021/04/11 02:36:07;;;;;;;6.78;4.22;;;;;;;8.45;68.68;99591.97;2066322;28;20030;-80
2021/04/11 02:37:23;;;;;;;6.88;4.57;;;;;;;8.45;68.49;99598.94;2065854;28;20481;-80
2021/04/11 02:38:23;;;;;;;6.55;4.50;;;;;;;8.39;68.97;99592.19;2069309;28;20495;-80
2021/04/11 02:39:30;;;;;;;8.83;4.57;;;;;;;8.45;68.64;99591.97;2074331;28;20018;-80
2021/04/11 02:40:34;;;;;;;7.32;4.95;;;;;;;8.48;68.46;99593.66;2071808;28;20050;-81
2021/04/11 02:41:34;;;;;;;9.25;5.05;;;;;;;8.49;68.44;99591.03;2066280;28;20026;-81
2021/04/11 02:42:35;;;;;;;5.65;4.30;;;;;;;8.56;68.21;99591.69;2065822;28;20089;-81
2021/04/11 02:43:37;;;;;;;6.07;4.32;;;;;;;8.53;68.18;99587.41;2065898;28;20392;-80
2021/04/11 02:44:40;;;;;;;6.95;4.45;;;;;;;8.51;68.74;99588.38;2068121;28;20034;-81
2021/04/11 02:45:44;;;;;;;8.50;4.63;;;;;;;8.52;68.82;99596.09;2073441;28;20496;-81
2021/04/11 02:46:46;;;;;;;7.47;4.53;;;;;;;8.63;67.96;99587.13;2073089;28;20037;-81
2021/04/11 02:47:47;;;;;;;7.65;4.90;;;;;;;8.59;68.23;99596.75;2073459;28;20022;-81
2021/04/11 02:48:47;;;;;;;7.28;4.65;;;;;;;8.55;68.52;99589.97;2074139;28;20531;-80
2021/04/11 02:49:50;;;;;;;6.95;4.35;;;;;;;8.58;68.57;99589.88;2074935;28;20105;-80
2021/04/11 02:50:50;;;;;;;7.05;4.50;;;;;;;8.60;68.45;99592.44;2073887;28;20084;-80
2021/04/11 02:51:53;;;;;;;8.63;4.73;;;;;;;8.57;68.83;99588.19;2074363;28;20038;-80
2021/04/11 02:52:58;;;;;;;8.07;4.90;;;;;;;8.60;69.13;99592.44;2073918;28;20026;-80
2021/04/11 02:54:01;;;;;;;6.93;4.85;;;;;;;8.70;68.72;99593.84;2073984;28;20108;-79
2021/04/11 02:55:01;;;;;;;7.28;4.60;;;;;;;8.63;69.01;99589.72;2073783;28;20083;-80
2021/04/11 02:56:03;;;;;;;9.00;4.80;;;;;;;8.55;69.34;99582.19;2073559;28;20030;-80
2021/04/11 02:57:05;;;;;;;7.95;4.93;;;;;;;8.54;69.52;99593.47;2074489;28;20514;-79
2021/04/11 02:58:06;;;;;;;10.57;5.15;;;;;;;8.55;69.43;99584.78;2067512;28;20558;-80
2021/04/11 02:59:06;;;;;;;10.43;5.05;;;;;;;8.58;69.39;99587.28;2065303;28;20057;-80
2021/04/11 03:00:10;;;;;;;6.93;4.60;;;;;;;8.74;68.91;99586.78;2057624;28;20062;-81
2021/04/11 03:01:14;;;;;;;8.80;4.85;;;;;;;8.66;69.10;99589.63;2065242;28;20014;-81
2021/04/11 03:02:15;;;;;;;10.35;5.00;;;;;;;8.64;69.17;99583.63;2073399;28;20022;-80
2021/04/11 03:03:16;;;;;;;10.83;4.80;;;;;;;8.61;69.23;99588.94;2073327;28;20386;-80
2021/04/11 03:04:18;;;;;;;;;;;;;;;8.60;69.26;99584.66;2074362;28;20882;-80
2021/04/11 03:05:22;;;;;;;8.60;4.65;;;;;;;8.61;69.02;99583.75;2066203;28;19916;-80
2021/04/11 03:06:26;;;;;;;6.82;5.00;;;;;;;8.69;68.64;99587.78;2065669;28;20026;-80
2021/04/11 03:07:33;;;;;;;10.00;4.95;;;;;;;8.63;68.84;99585.38;2066369;28;20443;-80
2021/04/11 03:08:36;;;;;;;8.07;4.55;;;;;;;8.64;68.53;99586.22;2065746;28;20033;-80
2021/04/11 03:09:45;;;;;;;6.07;4.55;;;;;;;8.64;68.67;99587.09;2073997;28;20442;-80
2021/04/11 03:10:56;;;;;;;8.32;4.40;;;;;;;8.61;68.74;99583.75;2074579;28;20025;-80
2021/04/11 03:11:57;;;;;;;8.57;4.85;;;;;;;8.67;68.54;99586.97;2066682;28;20022;-80
2021/04/11 03:13:00;;;;;;;8.85;5.10;;;;;;;8.64;68.67;99583.63;2074133;28;20026;-80
2021/04/11 03:14:02;;;;;;;7.05;4.80;;;;;;;8.66;68.71;99579.25;2074933;28;20037;-80
2021/04/11 03:15:04;;;;;;;6.90;4.60;;;;;;;8.67;68.40;99584.38;2075249;28;20021;-80
2021/04/11 03:16:05;;;;;;;6.53;4.35;;;;;;;8.68;68.55;99583.47;2074331;28;20045;-80
2021/04/11 03:17:14;;;;;;;7.70;4.57;;;;;;;8.70;68.90;99581.69;2073942;28;20388;-79
2021/04/11 03:18:15;;;;;;;7.80;5.18;;;;;;;8.68;69.30;99582.66;2073917;28;20089;-79
2021/04/11 03:19:22;;;;;;;;;;;;;;;8.69;68.89;99587.78;2073655;28;20112;-81
2021/04/11 03:20:31;;;;;;;7.05;4.68;;;;;;;8.77;68.63;99590.13;2066306;28;20000;-81
2021/04/11 03:21:34;;;;;;;8.02;4.28;;;;;;;8.77;68.42;99591.91;2066147;28;20081;-81
2021/04/11 03:22:35;;;;;;;6.60;5.25;;;;;;;8.86;68.24;99586.41;2073611;28;20021;-80
2021/04/11 03:23:37;;;;;;;5.97;4.50;;;;;;;8.80;68.58;99591.78;2073944;28;20049;-81
2021/04/11 03:24:38;;;;;;;7.03;4.05;;;;;;;8.80;68.63;99590.03;2073755;28;20028;-80
2021/04/11 03:25:41;;;;;;;6.90;4.40;;;;;;;8.82;68.58;99589.97;2073704;28;20038;-79
2021/04/11 03:26:46;;;;;;;6.38;4.47;;;;;;;8.81;68.55;99591.75;2073684;28;20069;-80
2021/04/11 03:27:57;;;;;;;9.32;4.57;;;;;;;8.78;68.73;99590.97;2073624;28;20578;-80
2021/04/11 03:29:12;;;;;;;5.80;4.30;;;;;;;8.85;68.60;99592.50;2066411;28;20484;-80
2021/04/11 03:30:22;;;;;;;8.45;4.55;;;;;;;8.84;68.23;99585.59;2073821;28;20432;-80
2021/04/11 03:31:29;;;;;;;5.22;4.18;;;;;;;8.84;67.86;99593.38;2073290;28;20127;-79
2021/04/11 03:32:34;;;;;;;8.40;4.60;;;;;;;8.87;67.96;99590.66;2065859;28;20047;-79
2021/04/11 03:33:37;;;;;;;5.85;4.10;;;;;;;8.87;68.21;99590.66;2073170;28;20686;-80
2021/04/11 03:34:42;;;;;;;6.13;4.28;;;;;;;8.86;68.47;99594.19;2073867;28;20030;-80
2021/04/11 03:35:46;;;;;;;6.20;4.63;;;;;;;8.90;68.26;99590.56;2066095;28;20035;-80
2021/04/11 03:36:47;;;;;;;5.75;4.15;;;;;;;8.90;68.06;99585.38;2065384;28;20034;-80
2021/04/11 03:37:49;;;;;;;6.95;4.78;;;;;;;9.00;67.77;99586.78;2066025;28;20053;-79
2021/04/11 03:38:50;;;;;;;6.85;4.72;;;;;;;9.01;67.19;99585.88;2066029;28;20065;-81
2021/04/11 03:39:50;;;;;;;8.13;4.60;;;;;;;9.05;67.52;99577.97;2073767;28;20029;-81
2021/04/11 03:40:54;;;;;;;5.87;4.30;;;;;;;9.05;67.79;99581.41;2073719;28;20038;-80
2021/04/11 03:41:55;;;;;;;12.23;4.65;;;;;;;9.11;68.03;99570.78;2073208;28;20018;-80
2021/04/11 03:43:11;;;;;;;7.97;4.37;;;;;;;9.03;68.72;99573.69;2073811;28;20037;-79
2021/04/11 03:44:18;;;;;;;7.10;4.50;;;;;;;8.98;69.35;99572.97;2065705;28;20014;-81
2021/04/11 03:45:19;;;;;;;8.05;4.75;;;;;;;8.96;69.48;99577.41;2065649;28;20540;-80
2021/04/11 03:46:38;;;;;;;6.20;4.75;;;;;;;8.97;69.53;99575.63;2065780;28;20070;-80
2021/04/11 03:47:45;;;;;;;7.18;4.80;;;;;;;9.05;69.07;99578.81;2069263;28;20037;-80
2021/04/11 03:48:54;;;;;;;6.78;4.45;;;;;;;9.01;68.80;99572.88;2070663;28;20025;-80
2021/04/11 03:50:15;;;;;;;7.50;4.78;;;;;;;9.09;68.43;99575.22;2072766;28;20045;-81
2021/04/11 03:51:22;;;;;;;8.80;4.47;;;;;;;9.02;69.11;99577.19;2072804;28;20026;-80
2021/04/11 03:52:29;;;;;;;6.25;4.40;;;;;;;9.01;68.90;99585.88;2064789;28;20015;-81
2021/04/11 03:53:38;;;;;;;7.55;3.90;;;;;;;9.06;68.87;99579.69;2071745;28;20053;-80
2021/04/11 03:54:42;;;;;;;6.63;4.68;;;;;;;9.06;68.54;99584.88;2073004;28;20428;-80
2021/04/11 03:55:46;;;;;;;7.53;4.50;;;;;;;9.07;68.62;99582.22;2072819;28;20484;-80
2021/04/11 03:57:08;;;;;;;8.43;4.40;;;;;;;9.08;68.42;99583.06;2073216;28;20511;-81
2021/04/11 03:58:14;;;;;;;7.15;4.93;;;;;;;9.08;68.23;99583.06;2073468;28;20113;-80
2021/04/11 03:59:20;;;;;;;8.48;4.68;;;;;;;9.01;68.35;99585.88;2073984;28;20026;-80
2021/04/11 04:00:25;;;;;;;5.68;3.92;;;;;;;9.00;68.47;99583.34;2070600;28;20022;-81
2021/04/11 04:01:29;;;;;;;9.80;4.53;;;;;;;8.98;68.41;99577.34;2069502;28;20054;-80
2021/04/11 04:02:35;;;;;;;5.45;4.03;;;;;;;8.99;68.56;99573.84;2072566;28;20068;-81
2021/04/11 04:03:37;;;;;;;5.80;4.05;;;;;;;8.95;68.37;99573.09;2068011;28;20029;-80
2021/04/11 04:04:40;;;;;;;5.05;4.10;;;;;;;8.93;68.45;99579.22;2065015;28;20081;-80
2021/04/11 04:05:42;;;;;;;7.63;4.45;;;;;;;8.94;68.39;99581.78;2064432;28;20034;-81
2021/04/11 04:07:07;;;;;;;7.32;4.32;;;;;;;9.01;67.65;99580.69;2065528;28;20439;-80
2021/04/11 04:08:08;;;;;;;7.93;4.05;;;;;;;8.94;68.22;99581.78;2064603;28;20030;-81
2021/04/11 04:09:08;;;;;;;7.50;4.27;;;;;;;8.94;68.19;99579.19;2065220;28;20029;-80
2021/04/11 04:10:09;;;;;;;4.70;4.20;;;;;;;8.93;68.02;99585.28;2065327;28;20026;-81
2021/04/11 04:11:40;;;;;;;10.40;4.20;;;;;;;8.92;68.11;99581.00;2065202;28;20469;-81
2021/04/11 04:12:48;;;;;;;6.97;4.38;;;;;;;8.95;67.93;99574.81;2070464;28;20057;-80
2021/04/11 04:14:09;;;;;;;9.68;4.40;;;;;;;8.92;68.07;99578.38;2065762;28;20027;-79
2021/04/11 04:15:13;;;;;;;5.20;4.10;;;;;;;8.90;68.27;99574.97;2072517;28;20026;-80
2021/04/11 04:16:21;;;;;;;5.65;4.32;;;;;;;8.88;68.35;99579.38;2072093;28;20273;-80
2021/04/11 04:17:36;;;;;;;6.18;4.25;;;;;;;8.86;68.67;99579.44;2072946;28;20021;-80
2021/04/11 04:18:45;;;;;;;8.73;4.30;;;;;;;8.86;68.67;99578.59;2073385;28;20031;-80
2021/04/11 04:19:51;;;;;;;8.10;4.00;;;;;;;8.83;68.53;99578.69;2073494;28;20026;-80
2021/04/11 04:21:02;;;;;;;6.43;4.03;;;;;;;8.88;68.44;99574.19;2072700;28;20057;-81
2021/04/11 04:22:39;;;;;;;7.47;4.20;;;;;;;8.92;68.77;99582.72;2074196;28;20022;-81
2021/04/11 04:23:51;;;;;;;6.93;4.10;;;;;;;8.98;68.29;99583.38;2068824;28;20026;-81
2021/04/11 04:25:07;;;;;;;6.18;4.05;;;;;;;8.96;68.63;99585.19;2075822;28;20058;-79
2021/04/11 04:26:29;;;;;;;6.85;4.07;;;;;;;8.96;68.83;99582.59;2075331;28;20025;-80
2021/04/11 04:27:38;;;;;;;5.63;4.03;;;;;;;8.97;68.64;99586.03;2073442;28;20017;-81
2021/04/11 04:28:55;;;;;;;6.40;4.07;;;;;;;8.97;68.72;99589.47;2073192;28;20029;-79
2021/04/11 04:30:12;;;;;;;6.13;4.20;;;;;;;8.98;68.74;99585.13;2073314;28;20076;-81
2021/04/11 04:31:30;;;;;;;10.07;4.43;;;;;;;9.00;68.34;99583.34;2072294;28;20026;-81
2021/04/11 04:32:47;;;;;;;4.95;3.92;;;;;;;9.02;68.22;99578.91;2071682;28;20037;-81
2021/04/11 04:34:08;;;;;;;8.77;4.38;;;;;;;9.10;67.99;99582.13;2071945;28;20022;-81
2021/04/11 04:35:29;;;;;;;5.32;3.97;;;;;;;9.03;68.21;99583.22;2070102;28;20045;-80
2021/04/11 04:36:45;;;;;;;5.32;4.03;;;;;;;8.98;68.54;99580.78;2065267;28;20057;-81
2021/04/11 04:38:03;;;;;;;8.30;3.80;;;;;;;8.93;68.61;99582.69;2065837;28;20062;-81
2021/04/11 04:39:31;;;;;;;6.53;4.07;;;;;;;8.93;68.66;99582.69;2077470;28;20750;-80
2021/04/11 04:41:12;;;;;;;5.10;3.88;;;;;;;8.85;69.19;99576.91;2078663;28;20087;-80
2021/04/11 04:42:25;;;;;;;6.53;4.00;;;;;;;8.85;69.25;99582.09;2053899;28;20047;-81
2021/04/11 04:43:36;;;;;;;6.70;3.90;;;;;;;8.90;68.80;99579.34;2065224;28;20030;-81
2021/04/11 04:44:55;;;;;;;6.97;3.90;;;;;;;8.93;68.75;99585.28;2072717;28;20539;-81
2021/04/11 04:46:12;;;;;;;6.80;3.50;;;;;;;8.93;68.69;99576.63;2073993;28;20021;-81
2021/04/11 04:47:17;;;;;;;8.88;3.80;;;;;;;8.98;68.83;99580.78;2066459;28;20113;-80
2021/04/11 04:48:56;;;;;;;8.05;4.28;;;;;;;8.96;68.95;99585.19;2074693;28;20067;-80
2021/04/11 04:50:09;;;;;;;6.43;3.95;;;;;;;8.92;69.33;99586.19;2054544;28;20058;-81
2021/04/11 04:51:16;;;;;;;4.90;3.85;;;;;;;8.91;69.36;99584.47;2072655;28;20065;-81
2021/04/11 04:52:21;;;;;;;5.50;4.05;;;;;;;8.92;69.39;99581.00;2074151;28;20025;-81
2021/04/11 04:53:43;;;;;;;8.13;4.50;;;;;;;8.97;69.13;99579.06;2072722;28;20104;-79
2021/04/11 04:54:44;;;;;;;;;;;;;;;8.93;69.57;99581.81;2066689;28;20452;-80
2021/04/11 04:55:48;;;;;;;8.02;4.50;;;;;;;8.98;69.28;99572.13;2064154;28;20021;-85
2021/04/11 04:56:56;;;;;;;9.07;4.40;;;;;;;8.97;69.38;99580.84;2063384;28;20080;-85
2021/04/11 04:58:08;;;;;;;7.38;4.00;;;;;;;8.94;69.35;99575.72;2064139;28;20097;-85
2021/04/11 04:59:11;;;;;;;;;;;;;;;8.93;69.53;99580.09;2058325;28;20026;-81
2021/04/11 05:00:18;;;;;;;5.07;4.07;;;;;;;8.94;69.41;99575.72;2064500;28;19917;-81
2021/04/11 05:01:25;;;;;;;8.27;4.50;;;;;;;8.93;69.39;99574.03;2065185;28;20022;-85
2021/04/11 05:02:34;;;;;;;7.05;4.30;;;;;;;8.94;69.56;99576.59;2064962;28;20092;-88
2021/04/11 05:03:38;;;;;;;6.63;4.68;;;;;;;8.89;69.87;99570.69;2064424;28;20113;-85
2021/04/11 05:04:47;;;;;;;7.68;4.82;;;;;;;8.87;70.08;99573.34;2064502;28;20029;-86
2021/04/11 05:05:57;;;;;;;9.35;6.38;;;;;;;8.89;70.15;99568.09;2065202;28;20122;-81
2021/04/11 05:07:12;;;;;;;7.97;5.72;;;;;;;8.89;70.07;99570.69;2064741;28;20026;-81
2021/04/11 05:08:22;;;;;;;8.57;5.10;;;;;;;8.93;69.57;99571.44;2065299;28;20034;-80
2021/04/11 05:09:30;;;;;;;7.18;4.03;;;;;;;8.98;69.35;99570.38;2064849;28;20029;-80
2021/04/11 05:10:37;;;;;;;7.68;4.15;;;;;;;8.97;69.28;99575.63;2064856;28;20030;-81
2021/04/11 05:12:25;;;;;;;7.18;4.03;;;;;;;8.97;69.13;99576.47;2065539;28;20030;-81